Time,TemperatureF,DewpointF,PressureIn,WindDirection,WindDirectionDegrees,WindSpeedMPH,WindSpeedGustMPH,Humidity,HourlyPrecipIn,Conditions,Clouds,dailyrainin,SoftwareType,DateUTC
2013-01-06 00:00:00,31.8,10.3,30.21,WSW,240,0.0,0.0,40,0.00,,---,0.00,VWS V14.01,2013-01-06 05:00:00,
2013-01-06 00:03:00,32.0,10.4,30.21,WSW,240,0.0,0.0,40,0.00,,---,0.00,VWS V14.01,2013-01-06 05:03:00,
2013-01-06 00:08:00,32.2,10.6,30.21,WSW,240,3.6,3.6,40,0.00,,---,0.00,VWS V14.01,2013-01-06 05:08:00,
2013-01-06 00:13:00,32.2,10.6,30.21,WSW,243,4.9,4.9,40,0.00,,---,0.00,VWS V14.01,2013-01-06 05:13:00,
2013-01-06 00:18:00,32.4,10.8,30.21,WSW,242,2.7,2.7,40,0.00,,---,0.00,VWS V14.01,2013-01-06 05:18:00,
2013-01-06 00:23:00,32.4,10.8,30.21,WSW,241,0.0,0.0,40,0.00,,---,0.00,VWS V14.01,2013-01-06 05:23:00,
2013-01-06 00:28:00,32.4,10.8,30.21,SW,236,3.1,3.1,40,0.00,,---,0.00,VWS V14.01,2013-01-06 05:28:00,
2013-01-06 00:33:00,32.4,10.8,30.21,WSW,237,4.9,4.9,40,0.00,,---,0.00,VWS V14.01,2013-01-06 05:33:00,
2013-01-06 00:38:00,32.5,10.9,30.21,SW,236,3.6,3.6,40,0.00,,---,0.00,VWS V14.01,2013-01-06 05:38:00,
2013-01-06 00:43:00,32.5,10.9,30.21,SW,236,0.0,0.0,40,0.00,,---,0.00,VWS V14.01,2013-01-06 05:43:00,
2013-01-06 00:48:00,32.5,10.9,30.21,SW,236,0.0,0.0,40,0.00,,---,0.00,VWS V14.01,2013-01-06 05:48:00,
2013-01-06 00:53:00,32.5,10.9,30.21,SW,235,2.7,2.7,40,0.00,,---,0.00,VWS V14.01,2013-01-06 05:53:00,
2013-01-06 00:58:00,32.5,10.9,30.21,SW,235,2.7,2.7,40,0.00,,---,0.00,VWS V14.01,2013-01-06 05:58:00,
2013-01-06 01:03:00,32.7,11.1,30.21,West,266,2.7,2.7,40,0.00,,---,0.00,VWS V14.01,2013-01-06 06:03:00,
2013-01-06 01:08:00,32.7,11.1,30.21,West,266,0.0,0.0,40,0.00,,---,0.00,VWS V14.01,2013-01-06 06:08:00,
2013-01-06 01:13:00,32.7,11.1,30.21,SSW,211,3.6,3.6,40,0.00,,---,0.00,VWS V14.01,2013-01-06 06:13:00,
2013-01-06 01:18:00,32.7,11.1,30.21,SW,214,2.7,2.7,40,0.00,,---,0.00,VWS V14.01,2013-01-06 06:18:00,
2013-01-06 01:23:00,32.9,10.7,30.21,SSW,209,2.2,2.2,39,0.00,,---,0.00,VWS V14.01,2013-01-06 06:23:00,
2013-01-06 01:28:00,32.9,10.7,30.21,WSW,238,2.7,2.7,39,0.00,,---,0.00,VWS V14.01,2013-01-06 06:28:00,
2013-01-06 01:33:00,32.9,10.1,30.21,SW,232,3.1,3.1,38,0.00,,---,0.00,VWS V14.01,2013-01-06 06:33:00,
2013-01-06 01:38:00,33.1,10.2,30.21,SW,225,2.7,2.7,38,0.00,,---,0.00,VWS V14.01,2013-01-06 06:38:00,
2013-01-06 01:43:00,33.1,9.7,30.21,SW,234,0.0,0.0,37,0.00,,---,0.00,VWS V14.01,2013-01-06 06:43:00,
2013-01-06 01:48:00,33.1,9.7,30.21,SW,234,0.0,0.0,37,0.00,,---,0.00,VWS V14.01,2013-01-06 06:48:00,
2013-01-06 01:53:00,33.1,9.7,30.21,SW,234,0.0,0.0,37,0.00,,---,0.00,VWS V14.01,2013-01-06 06:53:00,
2013-01-06 01:58:00,33.1,9.7,30.21,SW,234,0.0,0.0,37,0.00,,---,0.00,VWS V14.01,2013-01-06 06:58:00,
2013-01-06 02:03:00,32.9,9.5,30.21,SW,234,0.0,0.0,37,0.00,,---,0.00,VWS V14.01,2013-01-06 07:03:00,
2013-01-06 02:08:00,33.1,9.7,30.21,SW,224,4.0,4.0,37,0.00,,---,0.00,VWS V14.01,2013-01-06 07:08:00,
2013-01-06 02:13:00,33.1,9.7,30.21,West,262,4.0,4.0,37,0.00,,---,0.00,VWS V14.01,2013-01-06 07:13:00,
2013-01-06 02:18:00,33.3,9.8,30.21,SW,229,2.7,2.7,37,0.00,,---,0.00,VWS V14.01,2013-01-06 07:18:00,
2013-01-06 02:23:00,33.3,9.2,30.21,WSW,243,2.7,2.7,36,0.00,,---,0.00,VWS V14.01,2013-01-06 07:23:00,
2013-01-06 02:28:00,33.4,9.4,30.21,SW,215,3.6,3.6,36,0.00,,---,0.00,VWS V14.01,2013-01-06 07:28:00,
2013-01-06 02:33:00,33.4,9.4,30.21,SSW,201,3.6,3.6,36,0.00,,---,0.00,VWS V14.01,2013-01-06 07:33:00,
2013-01-06 02:38:00,33.6,9.5,30.21,SSW,192,6.3,6.3,36,0.00,,---,0.00,VWS V14.01,2013-01-06 07:38:00,
2013-01-06 02:43:00,33.6,9.5,30.21,South,171,0.0,0.0,36,0.00,,---,0.00,VWS V14.01,2013-01-06 07:43:00,
2013-01-06 02:48:00,33.6,9.5,30.21,South,188,6.3,6.3,36,0.00,,---,0.00,VWS V14.01,2013-01-06 07:48:00,
2013-01-06 02:53:00,33.8,10.3,30.21,SSE,165,3.1,3.1,37,0.00,,---,0.00,VWS V14.01,2013-01-06 07:53:00,
2013-01-06 02:58:00,33.8,12.1,30.21,SSE,152,3.6,3.6,40,0.00,,---,0.00,VWS V14.01,2013-01-06 07:58:00,
2013-01-06 03:03:00,34.0,12.2,30.21,South,170,3.6,3.6,40,0.00,,---,0.00,VWS V14.01,2013-01-06 08:03:00,
2013-01-06 03:08:00,34.0,12.8,30.18,South,183,4.0,4.0,41,0.00,,---,0.00,VWS V14.01,2013-01-06 08:08:00,
2013-01-06 03:13:00,34.0,13.9,30.18,SSW,192,2.7,2.7,43,0.00,,---,0.00,VWS V14.01,2013-01-06 08:13:00,
2013-01-06 03:18:00,33.8,15.2,30.18,South,186,3.6,3.6,46,0.00,,---,0.00,VWS V14.01,2013-01-06 08:18:00,
2013-01-06 03:23:00,33.8,16.2,30.18,SSE,161,3.1,3.1,48,0.00,,---,0.00,VWS V14.01,2013-01-06 08:23:00,
2013-01-06 03:28:00,33.6,17.0,30.18,South,191,2.7,2.7,50,0.00,,---,0.00,VWS V14.01,2013-01-06 08:28:00,
2013-01-06 03:33:00,33.6,17.4,30.15,SSW,209,4.9,4.9,51,0.00,,---,0.00,VWS V14.01,2013-01-06 08:33:00,
2013-01-06 03:38:00,33.6,17.9,30.15,South,182,2.7,2.7,52,0.00,,---,0.00,VWS V14.01,2013-01-06 08:38:00,
2013-01-06 03:44:00,33.6,18.3,30.15,South,180,0.0,0.0,53,0.00,,---,0.00,VWS V14.01,2013-01-06 08:44:00,
2013-01-06 03:49:00,33.6,18.3,30.15,SSE,153,0.0,0.0,53,0.00,,---,0.00,VWS V14.01,2013-01-06 08:49:00,
2013-01-06 03:54:00,33.6,18.8,30.15,SSW,198,0.0,0.0,54,0.00,,---,0.00,VWS V14.01,2013-01-06 08:54:00,
2013-01-06 03:59:00,33.6,18.8,30.15,SW,221,0.0,0.0,54,0.00,,---,0.00,VWS V14.01,2013-01-06 08:59:00,
2013-01-06 04:04:00,33.6,18.8,30.15,SSW,193,0.0,0.0,54,0.00,,---,0.00,VWS V14.01,2013-01-06 09:04:00,
2013-01-06 04:09:00,33.6,19.2,30.15,SSW,209,3.6,3.6,55,0.00,,---,0.00,VWS V14.01,2013-01-06 09:09:00,
2013-01-06 04:14:00,33.6,19.6,30.15,SW,216,2.2,2.2,56,0.00,,---,0.00,VWS V14.01,2013-01-06 09:14:00,
2013-01-06 04:19:00,33.6,19.6,30.15,SSW,203,2.7,2.7,56,0.00,,---,0.00,VWS V14.01,2013-01-06 09:19:00,
2013-01-06 04:24:00,33.6,19.6,30.15,SSW,203,0.0,0.0,56,0.00,,---,0.00,VWS V14.01,2013-01-06 09:24:00,
2013-01-06 04:29:00,33.4,19.9,30.12,SSW,203,0.0,0.0,57,0.00,,---,0.00,VWS V14.01,2013-01-06 09:29:00,
2013-01-06 04:34:00,33.4,19.9,30.12,SSW,203,0.0,0.0,57,0.00,,---,0.00,VWS V14.01,2013-01-06 09:34:00,
2013-01-06 04:39:00,33.4,19.9,30.12,SSW,207,0.0,0.0,57,0.00,,---,0.00,VWS V14.01,2013-01-06 09:39:00,
2013-01-06 04:44:00,33.4,20.3,30.12,South,183,2.2,2.2,58,0.00,,---,0.00,VWS V14.01,2013-01-06 09:44:00,
2013-01-06 04:49:00,33.4,20.3,30.12,South,191,3.6,3.6,58,0.00,,---,0.00,VWS V14.01,2013-01-06 09:49:00,
2013-01-06 04:54:00,33.4,20.3,30.12,SW,218,3.6,3.6,58,0.00,,---,0.00,VWS V14.01,2013-01-06 09:54:00,
2013-01-06 04:59:00,33.4,20.7,30.12,SSW,196,3.6,3.6,59,0.00,,---,0.00,VWS V14.01,2013-01-06 09:59:00,
2013-01-06 05:04:00,33.4,20.7,30.12,SSW,212,0.0,0.0,59,0.00,,---,0.00,VWS V14.01,2013-01-06 10:04:00,
2013-01-06 05:09:00,33.4,21.1,30.12,SSW,198,2.7,2.7,60,0.00,,---,0.00,VWS V14.01,2013-01-06 10:09:00,
2013-01-06 05:14:00,33.4,21.1,30.12,SSW,212,0.0,0.0,60,0.00,,---,0.00,VWS V14.01,2013-01-06 10:14:00,
2013-01-06 05:19:00,33.4,21.1,30.12,SSW,211,0.0,0.0,60,0.00,,---,0.00,VWS V14.01,2013-01-06 10:19:00,
2013-01-06 05:24:00,33.4,21.1,30.12,SSW,213,0.0,0.0,60,0.00,,---,0.00,VWS V14.01,2013-01-06 10:24:00,
2013-01-06 05:29:00,33.4,21.5,30.12,SSW,213,0.0,0.0,61,0.00,,---,0.00,VWS V14.01,2013-01-06 10:29:00,
2013-01-06 05:34:00,33.4,21.5,30.12,SSW,208,0.0,0.0,61,0.00,,---,0.00,VWS V14.01,2013-01-06 10:34:00,
2013-01-06 05:39:00,33.4,21.5,30.12,South,190,0.0,0.0,61,0.00,,---,0.00,VWS V14.01,2013-01-06 10:39:00,
2013-01-06 05:44:00,33.4,21.8,30.12,South,190,0.0,0.0,62,0.00,,---,0.00,VWS V14.01,2013-01-06 10:44:00,
2013-01-06 05:49:00,33.4,21.8,30.12,South,179,0.0,0.0,62,0.00,,---,0.00,VWS V14.01,2013-01-06 10:49:00,
2013-01-06 05:54:00,33.4,21.8,30.12,SSE,160,0.0,0.0,62,0.00,,---,0.00,VWS V14.01,2013-01-06 10:54:00,
2013-01-06 05:59:00,33.4,22.2,30.12,SSE,160,0.0,0.0,63,0.00,,---,0.00,VWS V14.01,2013-01-06 10:59:00,
2013-01-06 06:04:00,33.4,22.2,30.12,SSE,160,0.0,0.0,63,0.00,,---,0.00,VWS V14.01,2013-01-06 11:04:00,
2013-01-06 06:09:00,33.4,22.2,30.12,SSE,160,0.0,0.0,63,0.00,,---,0.00,VWS V14.01,2013-01-06 11:09:00,
2013-01-06 06:14:00,33.4,22.6,30.09,SSE,160,0.0,0.0,64,0.00,,---,0.00,VWS V14.01,2013-01-06 11:14:00,
2013-01-06 06:19:00,33.4,22.6,30.09,SSE,160,0.0,0.0,64,0.00,,---,0.00,VWS V14.01,2013-01-06 11:19:00,
2013-01-06 06:24:00,33.4,22.6,30.09,SSE,160,0.0,0.0,64,0.00,,---,0.00,VWS V14.01,2013-01-06 11:24:00,
2013-01-06 06:29:00,33.4,22.6,30.09,SSE,160,0.0,0.0,64,0.00,,---,0.00,VWS V14.01,2013-01-06 11:29:00,
2013-01-06 06:34:00,33.4,22.6,30.09,SSE,160,0.0,0.0,64,0.00,,---,0.00,VWS V14.01,2013-01-06 11:34:00,
2013-01-06 06:39:00,33.4,23.0,30.09,SSE,160,0.0,0.0,65,0.00,,---,0.00,VWS V14.01,2013-01-06 11:39:00,
2013-01-06 06:44:00,33.4,23.0,30.09,SSE,160,0.0,0.0,65,0.00,,---,0.00,VWS V14.01,2013-01-06 11:44:00,
2013-01-06 06:49:00,33.4,23.0,30.09,SSE,160,0.0,0.0,65,0.00,,---,0.00,VWS V14.01,2013-01-06 11:49:00,
2013-01-06 06:54:00,33.4,23.0,30.09,SSE,160,0.0,0.0,65,0.00,,---,0.00,VWS V14.01,2013-01-06 11:54:00,
2013-01-06 06:59:00,33.4,23.0,30.09,SSE,160,0.0,0.0,65,0.00,,---,0.00,VWS V14.01,2013-01-06 11:59:00,
2013-01-06 07:04:00,33.6,23.1,30.09,SSE,160,0.0,0.0,65,0.00,,---,0.00,VWS V14.01,2013-01-06 12:04:00,
2013-01-06 07:09:00,33.6,23.5,30.09,SSE,160,0.0,0.0,66,0.00,,---,0.00,VWS V14.01,2013-01-06 12:09:00,
2013-01-06 07:14:00,33.6,23.5,30.09,SSE,160,0.0,0.0,66,0.00,,---,0.00,VWS V14.01,2013-01-06 12:14:00,
2013-01-06 07:19:00,33.6,23.5,30.09,SSE,160,0.0,0.0,66,0.00,,---,0.00,VWS V14.01,2013-01-06 12:19:00,
2013-01-06 07:24:00,33.6,23.5,30.09,SSE,160,0.0,0.0,66,0.00,,---,0.00,VWS V14.01,2013-01-06 12:24:00,
2013-01-06 07:30:00,33.6,23.5,30.09,SSE,160,0.0,0.0,66,0.00,,---,0.00,VWS V14.01,2013-01-06 12:30:00,
2013-01-06 07:35:00,33.6,23.5,30.09,SSE,160,0.0,0.0,66,0.00,,---,0.00,VWS V14.01,2013-01-06 12:35:00,
2013-01-06 07:40:00,33.6,23.5,30.09,SSE,160,0.0,0.0,66,0.00,,---,0.00,VWS V14.01,2013-01-06 12:40:00,
2013-01-06 07:45:00,33.6,23.9,30.09,SSE,160,0.0,0.0,67,0.00,,---,0.00,VWS V14.01,2013-01-06 12:45:00,
2013-01-06 07:50:00,33.8,23.7,30.09,SSE,160,0.0,0.0,66,0.00,,---,0.00,VWS V14.01,2013-01-06 12:50:00,
2013-01-06 07:55:00,34.0,24.2,30.09,SSE,160,0.0,0.0,67,0.00,,---,0.00,VWS V14.01,2013-01-06 12:55:00,
2013-01-06 08:00:00,34.0,24.2,30.09,SSE,160,0.0,0.0,67,0.00,,---,0.00,VWS V14.01,2013-01-06 13:00:00,
2013-01-06 08:05:00,34.2,24.4,30.09,SSE,160,0.0,0.0,67,0.00,,---,0.00,VWS V14.01,2013-01-06 13:05:00,
2013-01-06 08:10:00,34.2,24.4,30.09,SSE,160,0.0,0.0,67,0.00,,---,0.00,VWS V14.01,2013-01-06 13:10:00,
2013-01-06 08:15:00,34.2,24.4,30.09,SSE,160,0.0,0.0,67,0.00,,---,0.00,VWS V14.01,2013-01-06 13:15:00,
2013-01-06 08:20:00,34.3,24.5,30.09,SSE,160,0.0,0.0,67,0.00,,---,0.00,VWS V14.01,2013-01-06 13:20:00,
2013-01-06 08:25:00,34.3,24.5,30.09,SSE,160,0.0,0.0,67,0.00,,---,0.00,VWS V14.01,2013-01-06 13:25:00,
2013-01-06 08:30:00,34.5,24.7,30.09,SSE,160,0.0,0.0,67,0.00,,---,0.00,VWS V14.01,2013-01-06 13:30:00,
2013-01-06 08:35:00,34.9,25.4,30.09,SSE,160,0.0,0.0,68,0.00,,---,0.00,VWS V14.01,2013-01-06 13:35:00,
2013-01-06 08:40:00,38.1,28.5,30.09,SSE,161,3.1,3.1,68,0.00,,---,0.00,VWS V14.01,2013-01-06 13:40:00,
2013-01-06 08:45:00,41.5,30.7,30.09,West,277,3.6,3.6,65,0.00,,---,0.00,VWS V14.01,2013-01-06 13:45:00,
2013-01-06 08:50:00,44.8,30.5,30.09,SSW,206,3.1,3.1,57,0.00,,---,0.00,VWS V14.01,2013-01-06 13:50:00,
2013-01-06 08:55:00,44.2,27.7,30.09,WSW,256,3.1,3.1,52,0.00,,---,0.00,VWS V14.01,2013-01-06 13:55:00,
2013-01-06 09:00:00,43.0,27.5,30.09,WSW,256,3.1,3.1,54,0.00,,---,0.00,VWS V14.01,2013-01-06 14:00:00,
2013-01-06 09:05:00,46.0,29.4,30.09,WSW,256,0.0,0.0,52,0.00,,---,0.00,VWS V14.01,2013-01-06 14:05:00,
2013-01-06 09:10:00,47.7,26.8,30.09,West,278,5.8,5.8,44,0.00,,---,0.00,VWS V14.01,2013-01-06 14:10:00,
2013-01-06 09:15:00,46.8,22.5,30.09,NW,306,3.6,3.6,38,0.00,,---,0.00,VWS V14.01,2013-01-06 14:15:00,
2013-01-06 09:20:00,42.6,19.4,30.09,West,266,7.2,7.2,39,0.00,,---,0.00,VWS V14.01,2013-01-06 14:20:00,
2013-01-06 09:25:00,40.6,18.8,30.09,WNW,294,3.6,3.6,41,0.00,,---,0.00,VWS V14.01,2013-01-06 14:25:00,
2013-01-06 09:30:00,39.7,19.1,30.09,WNW,292,0.0,0.0,43,0.00,,---,0.00,VWS V14.01,2013-01-06 14:30:00,
2013-01-06 09:35:00,39.2,20.2,30.09,WSW,257,2.2,2.2,46,0.00,,---,0.00,VWS V14.01,2013-01-06 14:35:00,
2013-01-06 09:40:00,39.2,21.2,30.09,West,265,4.0,4.0,48,0.00,,---,0.00,VWS V14.01,2013-01-06 14:40:00,
2013-01-06 09:45:00,39.2,21.7,30.09,NW,312,0.0,0.0,49,0.00,,---,0.00,VWS V14.01,2013-01-06 14:45:00,
2013-01-06 09:50:00,39.2,22.1,30.09,SW,223,3.1,3.1,50,0.00,,---,0.00,VWS V14.01,2013-01-06 14:50:00,
2013-01-06 09:55:00,39.4,22.3,30.09,SW,221,3.6,3.6,50,0.00,,---,0.00,VWS V14.01,2013-01-06 14:55:00,
2013-01-06 10:00:00,39.7,23.1,30.09,SW,218,5.4,5.4,51,0.04,,---,0.04,VWS V14.01,2013-01-06 15:00:00,
2013-01-06 10:05:00,39.9,23.3,30.09,WSW,238,5.8,5.8,51,0.04,,---,0.04,VWS V14.01,2013-01-06 15:05:00,
2013-01-06 10:10:00,40.1,23.4,30.09,SW,235,3.6,3.6,51,0.04,,---,0.04,VWS V14.01,2013-01-06 15:10:00,
2013-01-06 10:15:00,40.5,23.8,30.09,South,190,5.4,5.4,51,0.04,,---,0.04,VWS V14.01,2013-01-06 15:15:00,
2013-01-06 10:20:00,40.6,23.9,30.09,South,181,3.6,3.6,51,0.04,,---,0.04,VWS V14.01,2013-01-06 15:20:00,
2013-01-06 10:25:00,40.5,23.3,30.09,West,267,8.1,8.1,50,0.04,,---,0.04,VWS V14.01,2013-01-06 15:25:00,
2013-01-06 10:30:00,40.3,22.7,30.09,SW,218,6.7,6.7,49,0.04,,---,0.04,VWS V14.01,2013-01-06 15:30:00,
2013-01-06 10:35:00,39.9,22.3,30.09,WSW,256,6.3,6.3,49,0.04,,---,0.04,VWS V14.01,2013-01-06 15:35:00,
2013-01-06 10:40:00,40.1,22.5,30.09,SW,219,4.0,4.0,49,0.04,,---,0.04,VWS V14.01,2013-01-06 15:40:00,
2013-01-06 10:45:00,40.5,23.3,30.09,SSW,206,4.9,4.9,50,0.04,,---,0.04,VWS V14.01,2013-01-06 15:45:00,
2013-01-06 10:50:00,40.8,23.6,30.06,SSW,193,10.1,10.1,50,0.04,,---,0.04,VWS V14.01,2013-01-06 15:50:00,
2013-01-06 10:56:00,41.2,23.5,30.06,SSW,207,4.0,4.0,49,0.04,,---,0.04,VWS V14.01,2013-01-06 15:56:00,
2013-01-06 11:01:00,41.5,23.8,30.06,SW,214,5.8,5.8,49,0.04,,---,0.04,VWS V14.01,2013-01-06 16:01:00,
2013-01-06 11:06:00,41.5,22.8,30.06,South,178,8.1,8.1,47,0.04,,---,0.04,VWS V14.01,2013-01-06 16:06:00,
2013-01-06 11:11:00,41.5,21.8,30.06,SW,220,6.3,6.3,45,0.04,,---,0.04,VWS V14.01,2013-01-06 16:11:00,
2013-01-06 11:16:00,41.9,22.6,30.06,WNW,282,5.4,5.4,46,0.00,,---,0.04,VWS V14.01,2013-01-06 16:16:00,
2013-01-06 11:21:00,42.1,22.3,30.06,WSW,239,4.0,4.0,45,0.00,,---,0.04,VWS V14.01,2013-01-06 16:21:00,
2013-01-06 11:26:00,42.3,21.9,30.06,West,259,10.1,10.1,44,0.00,,---,0.04,VWS V14.01,2013-01-06 16:26:00,
2013-01-06 11:31:00,42.3,21.4,30.03,SW,223,3.6,3.6,43,0.00,,---,0.04,VWS V14.01,2013-01-06 16:31:00,
2013-01-06 11:36:00,42.4,21.0,30.03,SW,215,3.6,3.6,42,0.00,,---,0.04,VWS V14.01,2013-01-06 16:36:00,
2013-01-06 11:41:00,42.6,21.1,30.03,WSW,250,7.6,7.6,42,0.00,,---,0.04,VWS V14.01,2013-01-06 16:41:00,
2013-01-06 11:46:00,42.8,20.8,30.03,West,278,3.6,3.6,41,0.00,,---,0.04,VWS V14.01,2013-01-06 16:46:00,
2013-01-06 11:51:00,43.2,21.1,30.03,SSW,207,4.5,4.5,41,0.00,,---,0.04,VWS V14.01,2013-01-06 16:51:00,
2013-01-06 11:56:00,43.2,19.9,30.03,WSW,237,3.1,3.1,39,0.00,,---,0.04,VWS V14.01,2013-01-06 16:56:00,
2013-01-06 12:01:00,43.3,20.1,30.03,WSW,248,0.0,0.0,39,0.00,,---,0.04,VWS V14.01,2013-01-06 17:01:00,
2013-01-06 12:06:00,43.5,20.2,30.03,SW,232,4.9,4.9,39,0.00,,---,0.04,VWS V14.01,2013-01-06 17:06:00,
2013-01-06 12:11:00,43.9,20.5,30.00,SW,232,6.3,6.3,39,0.00,,---,0.04,VWS V14.01,2013-01-06 17:11:00,
2013-01-06 12:16:00,44.1,20.7,30.00,South,172,4.0,4.0,39,0.00,,---,0.04,VWS V14.01,2013-01-06 17:16:00,
2013-01-06 12:21:00,44.2,20.9,30.00,SW,215,2.7,2.7,39,0.00,,---,0.04,VWS V14.01,2013-01-06 17:21:00,
2013-01-06 12:26:00,44.2,20.3,30.00,WSW,249,4.0,4.0,38,0.00,,---,0.04,VWS V14.01,2013-01-06 17:26:00,
2013-01-06 12:31:00,44.2,20.3,30.00,WNW,292,5.4,5.4,38,0.00,,---,0.04,VWS V14.01,2013-01-06 17:31:00,
2013-01-06 12:36:00,44.2,18.3,30.00,SW,217,6.3,6.3,35,0.00,,---,0.04,VWS V14.01,2013-01-06 17:36:00,
2013-01-06 12:41:00,44.1,17.5,30.00,West,277,6.3,6.3,34,0.00,,---,0.04,VWS V14.01,2013-01-06 17:41:00,
2013-01-06 12:46:00,44.1,17.5,30.00,WSW,253,7.6,7.6,34,0.00,,---,0.04,VWS V14.01,2013-01-06 17:46:00,
2013-01-06 12:51:00,44.1,17.5,30.00,SW,229,4.5,4.5,34,0.00,,---,0.04,VWS V14.01,2013-01-06 17:51:00,
2013-01-06 12:56:00,44.1,18.2,30.00,SW,220,5.4,5.4,35,0.00,,---,0.04,VWS V14.01,2013-01-06 17:56:00,
2013-01-06 13:01:00,44.1,16.8,30.00,SSW,205,7.6,7.6,33,0.00,,---,0.04,VWS V14.01,2013-01-06 18:01:00,
2013-01-06 13:06:00,44.1,16.8,30.00,SW,232,4.0,4.0,33,0.00,,---,0.04,VWS V14.01,2013-01-06 18:06:00,
2013-01-06 13:11:00,44.2,17.0,30.00,SW,229,3.6,3.6,33,0.00,,---,0.04,VWS V14.01,2013-01-06 18:11:00,
2013-01-06 13:16:00,44.2,15.5,29.97,WSW,247,7.6,7.6,31,0.00,,---,0.04,VWS V14.01,2013-01-06 18:16:00,
2013-01-06 13:21:00,44.4,14.9,29.97,WNW,288,6.3,6.3,30,0.00,,---,0.04,VWS V14.01,2013-01-06 18:21:00,
2013-01-06 13:26:00,44.4,14.2,29.97,South,180,6.3,6.3,29,0.00,,---,0.04,VWS V14.01,2013-01-06 18:26:00,
2013-01-06 13:31:00,44.6,13.5,29.97,WSW,247,10.5,10.5,28,0.00,,---,0.04,VWS V14.01,2013-01-06 18:31:00,
2013-01-06 13:36:00,44.6,13.5,29.97,WSW,245,7.2,7.2,28,0.00,,---,0.04,VWS V14.01,2013-01-06 18:36:00,
2013-01-06 13:41:00,44.8,13.7,29.97,South,187,3.1,3.1,28,0.00,,---,0.00,VWS V14.01,2013-01-06 18:41:00,
2013-01-06 13:46:00,44.8,13.7,29.97,South,187,3.1,3.1,28,0.00,,---,0.04,VWS V14.01,2013-01-06 18:46:00,
2013-01-06 13:51:00,44.8,13.7,29.97,West,266,5.8,5.8,28,0.00,,---,0.04,VWS V14.01,2013-01-06 18:51:00,
2013-01-06 13:56:00,44.8,13.7,29.97,WSW,251,5.8,5.8,28,0.00,,---,0.04,VWS V14.01,2013-01-06 18:56:00,
2013-01-06 14:01:00,45.0,13.8,29.97,WSW,251,5.8,5.8,28,0.00,,---,0.04,VWS V14.01,2013-01-06 19:01:00,
2013-01-06 14:06:00,45.1,14.0,29.97,WNW,282,4.0,4.0,28,0.00,,---,0.04,VWS V14.01,2013-01-06 19:06:00,
2013-01-06 14:11:00,45.1,13.2,29.97,West,268,5.8,5.8,27,0.00,,---,0.04,VWS V14.01,2013-01-06 19:11:00,
2013-01-06 14:16:00,45.3,11.6,29.97,West,280,7.6,7.6,25,0.00,,---,0.04,VWS V14.01,2013-01-06 19:16:00,
2013-01-06 14:21:00,45.3,11.6,29.97,SSW,210,8.3,8.3,25,0.00,,---,0.04,VWS V14.01,2013-01-06 19:21:00,
2013-01-06 14:26:00,45.3,11.6,29.97,WNW,284,5.8,5.8,25,0.00,,---,0.04,VWS V14.01,2013-01-06 19:26:00,
2013-01-06 14:31:00,45.3,11.6,29.97,WSW,250,8.7,8.7,25,0.00,,---,0.04,VWS V14.01,2013-01-06 19:31:00,
2013-01-06 14:36:00,45.3,11.6,29.97,SW,230,4.9,4.9,25,0.00,,---,0.04,VWS V14.01,2013-01-06 19:36:00,
2013-01-06 14:41:00,45.5,11.7,29.97,SW,230,4.9,4.9,25,0.00,,---,0.04,VWS V14.01,2013-01-06 19:41:00,
2013-01-06 14:46:00,45.5,11.7,29.97,SW,223,5.4,5.4,25,0.00,,---,0.04,VWS V14.01,2013-01-06 19:46:00,
2013-01-06 14:51:00,45.5,11.7,29.97,SW,222,7.2,7.2,25,0.00,,---,0.04,VWS V14.01,2013-01-06 19:51:00,
2013-01-06 14:56:00,45.5,11.7,29.97,SW,215,8.1,8.1,25,0.00,,---,0.04,VWS V14.01,2013-01-06 19:56:00,
2013-01-06 15:01:00,45.3,11.6,29.94,South,190,3.6,3.6,25,0.00,,---,0.04,VWS V14.01,2013-01-06 20:01:00,
2013-01-06 15:06:00,45.3,11.6,29.94,South,190,3.6,3.6,25,0.00,,---,0.04,VWS V14.01,2013-01-06 20:06:00,
2013-01-06 15:11:00,45.3,8.7,29.94,West,259,6.3,6.3,22,0.00,,---,0.04,VWS V14.01,2013-01-06 20:11:00,
2013-01-06 15:13:00,45.3,8.7,29.94,West,259,6.3,6.3,22,0.00,,---,0.04,VWS V14.01,2013-01-06 20:13:00,
2013-01-06 15:18:00,45.3,11.6,29.94,WSW,250,10.1,10.1,25,0.00,,---,0.04,VWS V14.01,2013-01-06 20:18:00,
2013-01-06 15:23:00,45.3,8.7,29.94,WNW,295,5.8,5.8,22,0.00,,---,0.04,VWS V14.01,2013-01-06 20:23:00,
2013-01-06 15:28:00,45.3,8.7,29.94,West,259,3.1,3.1,22,0.00,,---,0.04,VWS V14.01,2013-01-06 20:28:00,
2013-01-06 15:33:00,45.1,11.4,29.94,WSW,250,5.8,5.8,25,0.00,,---,0.04,VWS V14.01,2013-01-06 20:33:00,
2013-01-06 15:38:00,45.1,11.4,29.94,WSW,237,5.4,5.4,25,0.00,,---,0.04,VWS V14.01,2013-01-06 20:38:00,
2013-01-06 15:43:00,45.0,11.3,29.94,West,263,4.9,4.9,25,0.00,,---,0.04,VWS V14.01,2013-01-06 20:43:00,
2013-01-06 15:48:00,45.0,11.3,29.94,SW,226,4.9,4.9,25,0.00,,---,0.04,VWS V14.01,2013-01-06 20:48:00,
2013-01-06 15:53:00,44.8,11.1,29.94,SW,231,4.9,4.9,25,0.00,,---,0.04,VWS V14.01,2013-01-06 20:53:00,
2013-01-06 15:58:00,44.6,11.0,29.94,SSW,213,8.1,8.1,25,0.00,,---,0.04,VWS V14.01,2013-01-06 20:58:00,
2013-01-06 16:01:00,44.6,11.0,29.94,WSW,256,10.1,10.1,25,0.00,,---,0.04,VWS V14.01,2013-01-06 21:01:00,
2013-01-06 16:06:00,44.4,8.9,29.94,SW,216,6.3,6.3,23,0.00,,---,0.04,VWS V14.01,2013-01-06 21:06:00,
2013-01-06 16:11:00,44.2,10.7,29.94,West,264,5.4,5.4,25,0.00,,---,0.04,VWS V14.01,2013-01-06 21:11:00,
2013-01-06 16:16:00,43.7,10.2,29.94,SW,235,3.1,3.1,25,0.00,,---,0.04,VWS V14.01,2013-01-06 21:16:00,
2013-01-06 16:21:00,43.5,10.0,29.94,SW,232,5.8,5.8,25,0.00,,---,0.04,VWS V14.01,2013-01-06 21:21:00,
2013-01-06 16:26:00,43.5,10.0,29.94,SW,232,5.8,5.8,25,0.00,,---,0.04,VWS V14.01,2013-01-06 21:26:00,
2013-01-06 16:31:00,43.2,9.7,29.97,SW,222,2.7,2.7,25,0.00,,---,0.04,VWS V14.01,2013-01-06 21:31:00,
2013-01-06 16:36:00,42.8,12.0,29.97,SSW,205,5.8,5.8,28,0.00,,---,0.04,VWS V14.01,2013-01-06 21:36:00,
2013-01-06 16:41:00,42.6,11.8,29.97,WSW,243,3.6,3.6,28,0.00,,---,0.04,VWS V14.01,2013-01-06 21:41:00,
2013-01-06 16:46:00,42.3,11.5,29.97,SW,219,3.6,3.6,28,0.00,,---,0.04,VWS V14.01,2013-01-06 21:46:00,
2013-01-06 16:51:00,42.1,11.3,29.97,SW,226,2.7,2.7,28,0.00,,---,0.04,VWS V14.01,2013-01-06 21:51:00,
2013-01-06 16:56:00,41.9,11.2,29.97,SW,230,3.1,3.1,28,0.00,,---,0.04,VWS V14.01,2013-01-06 21:56:00,
2013-01-06 17:01:00,41.5,11.7,29.97,SW,225,3.1,3.1,29,0.00,,---,0.04,VWS V14.01,2013-01-06 22:01:00,
2013-01-06 17:06:00,41.2,11.4,29.97,WSW,240,3.1,3.1,29,0.00,,---,0.04,VWS V14.01,2013-01-06 22:06:00,
2013-01-06 17:11:00,40.8,11.0,29.97,WSW,248,2.7,2.7,29,0.00,,---,0.04,VWS V14.01,2013-01-06 22:11:00,
2013-01-06 17:16:00,39.9,10.2,29.97,SW,231,2.7,2.7,29,0.00,,---,0.04,VWS V14.01,2013-01-06 22:16:00,
2013-01-06 17:21:00,39.2,10.4,29.97,SW,231,2.7,2.7,30,0.00,,---,0.04,VWS V14.01,2013-01-06 22:21:00,
2013-01-06 17:26:00,38.8,10.1,29.97,SW,231,2.7,2.7,30,0.00,,---,0.04,VWS V14.01,2013-01-06 22:26:00,
2013-01-06 17:31:00,38.5,10.5,29.97,SW,231,0.0,0.0,31,0.00,,---,0.04,VWS V14.01,2013-01-06 22:31:00,
2013-01-06 17:36:00,37.9,10.0,29.97,SW,231,3.6,3.6,31,0.00,,---,0.04,VWS V14.01,2013-01-06 22:36:00,
2013-01-06 17:41:00,37.4,9.5,29.97,SW,231,2.2,2.2,31,0.00,,---,0.04,VWS V14.01,2013-01-06 22:41:00,
2013-01-06 17:46:00,37.0,9.9,29.97,SW,231,2.2,2.2,32,0.00,,---,0.04,VWS V14.01,2013-01-06 22:46:00,
2013-01-06 17:51:00,36.9,10.5,29.97,SW,231,0.0,0.0,33,0.00,,---,0.00,VWS V14.01,2013-01-06 22:51:00,
2013-01-06 17:56:00,36.5,10.1,29.97,SW,231,0.0,0.0,33,0.00,,---,0.04,VWS V14.01,2013-01-06 22:56:00,
2013-01-06 18:01:00,36.1,10.5,29.97,SW,231,0.0,0.0,34,0.00,,---,0.04,VWS V14.01,2013-01-06 23:01:00,
2013-01-06 18:06:00,35.8,10.8,29.97,SW,231,0.0,0.0,35,0.00,,---,0.04,VWS V14.01,2013-01-06 23:06:00,
2013-01-06 18:11:00,35.4,11.1,29.97,SW,231,0.0,0.0,36,0.00,,---,0.04,VWS V14.01,2013-01-06 23:11:00,
2013-01-06 18:16:00,35.1,10.8,29.97,SW,231,0.0,0.0,36,0.00,,---,0.04,VWS V14.01,2013-01-06 23:16:00,
2013-01-06 18:21:00,34.9,11.3,29.97,SW,231,0.0,0.0,37,0.00,,---,0.04,VWS V14.01,2013-01-06 23:21:00,
2013-01-06 18:26:00,34.5,11.5,29.97,SW,231,0.0,0.0,38,0.00,,---,0.04,VWS V14.01,2013-01-06 23:26:00,
2013-01-06 18:32:00,34.3,12.0,30.00,SW,231,0.0,0.0,39,0.00,,---,0.04,VWS V14.01,2013-01-06 23:32:00,
2013-01-06 18:37:00,34.0,12.2,30.00,SW,231,0.0,0.0,40,0.00,,---,0.04,VWS V14.01,2013-01-06 23:37:00,
2013-01-06 18:42:00,33.8,12.1,30.00,SW,231,0.0,0.0,40,0.00,,---,0.04,VWS V14.01,2013-01-06 23:42:00,
2013-01-06 18:47:00,33.6,11.9,30.00,SW,231,0.0,0.0,40,0.00,,---,0.04,VWS V14.01,2013-01-06 23:47:00,
2013-01-06 18:52:00,33.3,11.6,30.00,SW,231,0.0,0.0,40,0.00,,---,0.04,VWS V14.01,2013-01-06 23:52:00,
2013-01-06 18:57:00,33.1,12.0,30.00,SW,231,0.0,0.0,41,0.00,,---,0.04,VWS V14.01,2013-01-06 23:57:00,
2013-01-06 19:02:00,32.9,11.8,30.00,SW,231,0.0,0.0,41,0.00,,---,0.04,VWS V14.01,2013-01-07 00:02:00,
2013-01-06 19:07:00,32.5,11.5,30.00,SW,231,0.0,0.0,41,0.00,,---,0.04,VWS V14.01,2013-01-07 00:07:00,
2013-01-06 19:12:00,32.4,11.3,30.00,SW,231,0.0,0.0,41,0.00,,---,0.04,VWS V14.01,2013-01-07 00:12:00,
2013-01-06 19:17:00,32.2,11.1,30.00,SW,231,0.0,0.0,41,0.00,,---,0.04,VWS V14.01,2013-01-07 00:17:00,
2013-01-06 19:22:00,31.8,11.4,30.00,SW,231,0.0,0.0,42,0.00,,---,0.04,VWS V14.01,2013-01-07 00:22:00,
2013-01-06 19:27:00,31.6,11.2,30.00,SW,231,0.0,0.0,42,0.00,,---,0.04,VWS V14.01,2013-01-07 00:27:00,
2013-01-06 19:32:00,31.5,11.0,30.00,SW,231,0.0,0.0,42,0.00,,---,0.04,VWS V14.01,2013-01-07 00:32:00,
2013-01-06 19:37:00,31.5,11.6,30.00,SW,231,0.0,0.0,43,0.00,,---,0.04,VWS V14.01,2013-01-07 00:37:00,
2013-01-06 19:42:00,31.5,11.6,30.00,SW,231,2.2,2.2,43,0.00,,---,0.04,VWS V14.01,2013-01-07 00:42:00,
2013-01-06 19:47:00,31.3,11.4,30.00,SW,231,0.0,0.0,43,0.00,,---,0.04,VWS V14.01,2013-01-07 00:47:00,
2013-01-06 19:52:00,31.3,11.9,30.00,SW,231,0.0,0.0,44,0.00,,---,0.04,VWS V14.01,2013-01-07 00:52:00,
2013-01-06 19:57:00,31.6,12.2,30.00,SW,231,0.0,0.0,44,0.00,,---,0.04,VWS V14.01,2013-01-07 00:57:00,
2013-01-06 20:02:00,32.0,13.1,30.00,SW,231,0.0,0.0,45,0.00,,---,0.04,VWS V14.01,2013-01-07 01:02:00,
2013-01-06 20:07:00,32.4,13.4,30.00,SW,231,0.0,0.0,45,0.00,,---,0.04,VWS V14.01,2013-01-07 01:07:00,
2013-01-06 20:12:00,32.7,14.2,30.00,SW,231,2.2,2.2,46,0.00,,---,0.04,VWS V14.01,2013-01-07 01:12:00,
2013-01-06 20:17:00,33.1,14.6,30.00,SW,231,0.0,0.0,46,0.00,,---,0.04,VWS V14.01,2013-01-07 01:17:00,
2013-01-06 20:22:00,33.3,15.2,30.00,SW,231,0.0,0.0,47,0.00,,---,0.04,VWS V14.01,2013-01-07 01:22:00,
2013-01-06 20:27:00,33.6,15.6,30.00,SW,231,0.0,0.0,47,0.00,,---,0.04,VWS V14.01,2013-01-07 01:27:00,
2013-01-06 20:32:00,34.0,16.4,30.00,SW,231,2.2,2.2,48,0.00,,---,0.04,VWS V14.01,2013-01-07 01:32:00,
2013-01-06 20:37:00,34.3,16.7,30.00,SW,231,0.0,0.0,48,0.00,,---,0.04,VWS V14.01,2013-01-07 01:37:00,
2013-01-06 20:42:00,34.7,17.0,30.00,SW,231,0.0,0.0,48,0.00,,---,0.04,VWS V14.01,2013-01-07 01:42:00,
2013-01-06 20:47:00,34.9,17.2,30.00,SW,231,0.0,0.0,48,0.00,,---,0.04,VWS V14.01,2013-01-07 01:47:00,
2013-01-06 20:52:00,34.9,16.7,30.00,SW,231,0.0,0.0,47,0.00,,---,0.04,VWS V14.01,2013-01-07 01:52:00,
2013-01-06 20:57:00,34.9,16.7,30.00,SW,231,0.0,0.0,47,0.00,,---,0.04,VWS V14.01,2013-01-07 01:57:00,
2013-01-06 21:02:00,35.1,16.9,30.00,SW,231,0.0,0.0,47,0.00,,---,0.04,VWS V14.01,2013-01-07 02:02:00,
2013-01-06 21:07:00,35.1,16.9,30.00,SW,231,0.0,0.0,47,0.00,,---,0.04,VWS V14.01,2013-01-07 02:07:00,
2013-01-06 21:12:00,35.1,16.9,30.00,SW,231,0.0,0.0,47,0.00,,---,0.04,VWS V14.01,2013-01-07 02:12:00,
2013-01-06 21:17:00,35.1,16.9,30.00,SW,231,0.0,0.0,47,0.00,,---,0.04,VWS V14.01,2013-01-07 02:17:00,
2013-01-06 21:22:00,35.2,17.0,30.00,SW,231,0.0,0.0,47,0.00,,---,0.04,VWS V14.01,2013-01-07 02:22:00,
2013-01-06 21:27:00,35.4,17.2,30.00,SW,231,0.0,0.0,47,0.00,,---,0.04,VWS V14.01,2013-01-07 02:27:00,
2013-01-06 21:32:00,35.6,17.4,30.00,SW,231,0.0,0.0,47,0.00,,---,0.04,VWS V14.01,2013-01-07 02:32:00,
2013-01-06 21:37:00,35.8,17.0,30.00,SW,231,0.0,0.0,46,0.00,,---,0.04,VWS V14.01,2013-01-07 02:37:00,
2013-01-06 21:42:00,36.0,17.2,30.00,SW,231,0.0,0.0,46,0.00,,---,0.04,VWS V14.01,2013-01-07 02:42:00,
2013-01-06 21:47:00,36.3,17.5,30.00,SW,231,2.7,2.7,46,0.00,,---,0.04,VWS V14.01,2013-01-07 02:47:00,
2013-01-06 21:52:00,36.3,17.0,30.00,SW,231,3.1,3.1,45,0.00,,---,0.04,VWS V14.01,2013-01-07 02:52:00,
2013-01-06 21:57:00,36.5,17.2,30.00,SW,231,2.7,2.7,45,0.00,,---,0.04,VWS V14.01,2013-01-07 02:57:00,
2013-01-06 22:02:00,36.7,17.4,30.00,SW,231,4.0,4.0,45,0.00,,---,0.04,VWS V14.01,2013-01-07 03:02:00,
2013-01-06 22:07:00,36.9,17.0,30.00,SW,231,3.1,3.1,44,0.00,,---,0.04,VWS V14.01,2013-01-07 03:07:00,
2013-01-06 22:12:00,37.0,17.2,30.00,SW,231,3.1,3.1,44,0.00,,---,0.04,VWS V14.01,2013-01-07 03:12:00,
2013-01-06 22:17:00,37.4,17.0,30.00,SW,231,2.7,2.7,43,0.00,,---,0.04,VWS V14.01,2013-01-07 03:17:00,
2013-01-06 22:22:00,37.4,16.4,30.00,SW,231,3.1,3.1,42,0.00,,---,0.04,VWS V14.01,2013-01-07 03:22:00,
2013-01-06 22:27:00,37.4,16.4,30.00,SW,232,2.7,2.7,42,0.00,,---,0.04,VWS V14.01,2013-01-07 03:27:00,
2013-01-06 22:32:00,37.4,16.4,30.00,SW,232,3.6,3.6,42,0.00,,---,0.04,VWS V14.01,2013-01-07 03:32:00,
2013-01-06 22:37:00,37.4,15.9,30.00,SW,232,0.0,0.0,41,0.00,,---,0.04,VWS V14.01,2013-01-07 03:37:00,
2013-01-06 22:42:00,37.4,15.9,30.00,SW,232,0.0,0.0,41,0.00,,---,0.04,VWS V14.01,2013-01-07 03:42:00,
2013-01-06 22:47:00,37.4,15.9,30.00,SW,232,0.0,0.0,41,0.00,,---,0.04,VWS V14.01,2013-01-07 03:47:00,
2013-01-06 22:52:00,37.2,15.7,30.00,SW,232,0.0,0.0,41,0.00,,---,0.04,VWS V14.01,2013-01-07 03:52:00,
2013-01-06 22:57:00,37.0,15.5,30.00,SW,232,2.7,2.7,41,0.00,,---,0.04,VWS V14.01,2013-01-07 03:57:00,
2013-01-06 23:02:00,37.0,15.5,30.00,SW,232,2.2,2.2,41,0.00,,---,0.04,VWS V14.01,2013-01-07 04:02:00,
2013-01-06 23:07:00,37.0,15.5,30.00,SW,232,0.0,0.0,41,0.00,,---,0.04,VWS V14.01,2013-01-07 04:07:00,
2013-01-06 23:12:00,36.9,15.4,30.00,SW,232,3.1,3.1,41,0.00,,---,0.04,VWS V14.01,2013-01-07 04:12:00,
2013-01-06 23:17:00,36.9,15.4,30.00,SW,232,2.2,2.2,41,0.00,,---,0.04,VWS V14.01,2013-01-07 04:17:00,
2013-01-06 23:23:00,37.0,15.5,30.00,SW,230,2.7,2.7,41,0.00,,---,0.04,VWS V14.01,2013-01-07 04:23:00,
2013-01-06 23:28:00,37.2,15.7,30.00,SW,231,3.1,3.1,41,0.00,,---,0.04,VWS V14.01,2013-01-07 04:28:00,
2013-01-06 23:33:00,37.2,15.7,30.00,SW,233,2.7,2.7,41,0.00,,---,0.04,VWS V14.01,2013-01-07 04:33:00,
2013-01-06 23:38:00,37.0,15.5,30.00,SW,233,3.6,3.6,41,0.00,,---,0.04,VWS V14.01,2013-01-07 04:38:00,
2013-01-06 23:43:00,36.9,14.8,30.00,West,265,2.7,2.7,40,0.00,,---,0.04,VWS V14.01,2013-01-07 04:43:00,
2013-01-06 23:48:00,36.7,14.6,30.00,SW,234,2.7,2.7,40,0.00,,---,0.04,VWS V14.01,2013-01-07 04:48:00,
2013-01-06 23:53:00,36.3,14.3,30.03,WSW,245,3.6,3.6,40,0.00,,---,0.04,VWS V14.01,2013-01-07 04:53:00,
2013-01-06 23:58:00,35.8,13.8,30.03,WSW,245,2.7,2.7,40,0.00,,---,0.04,VWS V14.01,2013-01-07 04:58:00,